sensor_id;sensor_type;location;lat;lon;timestamp;P1;durP1;ratioP1;P2;durP2;ratioP2
58731;SDS011;44508;44.626;21.182;2022-12-29T00:02:07;25.77;;;14.32;;
58731;SDS011;44508;44.626;21.182;2022-12-29T00:04:34;25.98;;;13.82;;
58731;SDS011;44508;44.626;21.182;2022-12-29T00:07:00;26.25;;;13.98;;
58731;SDS011;44508;44.626;21.182;2022-12-29T00:09:29;24.75;;;14.60;;
58731;SDS011;44508;44.626;21.182;2022-12-29T00:11:56;24.25;;;13.52;;
58731;SDS011;44508;44.626;21.182;2022-12-29T00:14:22;29.48;;;14.48;;
58731;SDS011;44508;44.626;21.182;2022-12-29T00:17:06;31.25;;;14.63;;
58731;SDS011;44508;44.626;21.182;2022-12-29T00:19:33;29.40;;;15.18;;
58731;SDS011;44508;44.626;21.182;2022-12-29T00:22:17;26.60;;;14.60;;
58731;SDS011;44508;44.626;21.182;2022-12-29T00:25:02;27.77;;;16.35;;
58731;SDS011;44508;44.626;21.182;2022-12-29T00:27:47;30.08;;;15.60;;
58731;SDS011;44508;44.626;21.182;2022-12-29T00:30:32;34.58;;;15.07;;
58731;SDS011;44508;44.626;21.182;2022-12-29T00:33:20;25.45;;;15.45;;
58731;SDS011;44508;44.626;21.182;2022-12-29T00:38:31;31.40;;;16.33;;
58731;SDS011;44508;44.626;21.182;2022-12-29T00:41:16;31.75;;;17.23;;
58731;SDS011;44508;44.626;21.182;2022-12-29T00:44:01;31.73;;;16.40;;
58731;SDS011;44508;44.626;21.182;2022-12-29T00:46:30;30.05;;;16.25;;
58731;SDS011;44508;44.626;21.182;2022-12-29T00:48:56;29.25;;;16.42;;
58731;SDS011;44508;44.626;21.182;2022-12-29T00:51:41;36.35;;;17.10;;
58731;SDS011;44508;44.626;21.182;2022-12-29T00:54:07;32.47;;;16.48;;
58731;SDS011;44508;44.626;21.182;2022-12-29T00:56:33;25.88;;;15.48;;
58731;SDS011;44508;44.626;21.182;2022-12-29T00:59:00;31.52;;;14.90;;
58731;SDS011;44508;44.626;21.182;2022-12-29T01:01:26;30.05;;;15.23;;
58731;SDS011;44508;44.626;21.182;2022-12-29T01:03:53;31.45;;;16.10;;
58731;SDS011;44508;44.626;21.182;2022-12-29T01:06:19;27.88;;;15.43;;
58731;SDS011;44508;44.626;21.182;2022-12-29T01:08:45;29.60;;;15.68;;
58731;SDS011;44508;44.626;21.182;2022-12-29T01:11:12;31.88;;;16.77;;
58731;SDS011;44508;44.626;21.182;2022-12-29T01:13:38;26.83;;;15.55;;
58731;SDS011;44508;44.626;21.182;2022-12-29T01:16:06;30.50;;;15.70;;
58731;SDS011;44508;44.626;21.182;2022-12-29T01:18:32;28.38;;;14.48;;
58731;SDS011;44508;44.626;21.182;2022-12-29T01:20:59;27.05;;;14.65;;
58731;SDS011;44508;44.626;21.182;2022-12-29T01:23:25;29.08;;;14.02;;
58731;SDS011;44508;44.626;21.182;2022-12-29T01:25:51;24.42;;;14.27;;
58731;SDS011;44508;44.626;21.182;2022-12-29T01:28:17;25.27;;;14.20;;
58731;SDS011;44508;44.626;21.182;2022-12-29T01:30:43;21.15;;;12.48;;
58731;SDS011;44508;44.626;21.182;2022-12-29T01:33:09;25.38;;;12.57;;
58731;SDS011;44508;44.626;21.182;2022-12-29T01:35:35;21.45;;;13.32;;
58731;SDS011;44508;44.626;21.182;2022-12-29T01:38:01;24.40;;;14.07;;
58731;SDS011;44508;44.626;21.182;2022-12-29T01:40:27;25.98;;;14.15;;
58731;SDS011;44508;44.626;21.182;2022-12-29T01:42:53;30.45;;;16.23;;
58731;SDS011;44508;44.626;21.182;2022-12-29T01:45:19;30.00;;;16.25;;
58731;SDS011;44508;44.626;21.182;2022-12-29T01:50:16;25.50;;;15.82;;
58731;SDS011;44508;44.626;21.182;2022-12-29T01:52:45;28.05;;;13.95;;
58731;SDS011;44508;44.626;21.182;2022-12-29T01:55:15;27.88;;;15.52;;
58731;SDS011;44508;44.626;21.182;2022-12-29T01:57:42;25.55;;;15.55;;
58731;SDS011;44508;44.626;21.182;2022-12-29T02:00:11;25.80;;;15.15;;
58731;SDS011;44508;44.626;21.182;2022-12-29T02:02:37;24.15;;;14.65;;
58731;SDS011;44508;44.626;21.182;2022-12-29T02:05:05;28.05;;;14.88;;
58731;SDS011;44508;44.626;21.182;2022-12-29T02:07:33;23.85;;;13.88;;
58731;SDS011;44508;44.626;21.182;2022-12-29T02:09:59;27.63;;;15.25;;
58731;SDS011;44508;44.626;21.182;2022-12-29T02:12:26;29.73;;;15.18;;
58731;SDS011;44508;44.626;21.182;2022-12-29T02:14:54;31.45;;;16.95;;
58731;SDS011;44508;44.626;21.182;2022-12-29T02:25:46;26.25;;;13.75;;
58731;SDS011;44508;44.626;21.182;2022-12-29T02:31:29;32.80;;;15.70;;
58731;SDS011;44508;44.626;21.182;2022-12-29T02:39:11;30.67;;;17.13;;
58731;SDS011;44508;44.626;21.182;2022-12-29T02:41:41;31.33;;;16.00;;
58731;SDS011;44508;44.626;21.182;2022-12-29T02:44:21;30.42;;;16.52;;
58731;SDS011;44508;44.626;21.182;2022-12-29T02:46:54;25.02;;;14.32;;
58731;SDS011;44508;44.626;21.182;2022-12-29T02:51:52;20.15;;;12.07;;
58731;SDS011;44508;44.626;21.182;2022-12-29T02:54:20;21.50;;;12.23;;
58731;SDS011;44508;44.626;21.182;2022-12-29T02:57:08;20.05;;;11.95;;
58731;SDS011;44508;44.626;21.182;2022-12-29T02:59:34;23.45;;;13.23;;
58731;SDS011;44508;44.626;21.182;2022-12-29T03:07:20;23.17;;;14.77;;
58731;SDS011;44508;44.626;21.182;2022-12-29T03:14:52;22.80;;;13.32;;
58731;SDS011;44508;44.626;21.182;2022-12-29T03:17:50;26.98;;;13.63;;
58731;SDS011;44508;44.626;21.182;2022-12-29T03:20:38;23.08;;;14.23;;
58731;SDS011;44508;44.626;21.182;2022-12-29T03:23:04;24.38;;;13.85;;
58731;SDS011;44508;44.626;21.182;2022-12-29T03:25:35;23.25;;;14.30;;
58731;SDS011;44508;44.626;21.182;2022-12-29T03:28:04;27.23;;;14.43;;
58731;SDS011;44508;44.626;21.182;2022-12-29T03:30:31;23.92;;;13.95;;
58731;SDS011;44508;44.626;21.182;2022-12-29T03:33:01;20.88;;;13.45;;
58731;SDS011;44508;44.626;21.182;2022-12-29T03:35:29;27.88;;;14.90;;
58731;SDS011;44508;44.626;21.182;2022-12-29T03:40:21;24.23;;;14.13;;
58731;SDS011;44508;44.626;21.182;2022-12-29T03:42:49;20.80;;;12.98;;
58731;SDS011;44508;44.626;21.182;2022-12-29T03:45:15;23.80;;;13.70;;
58731;SDS011;44508;44.626;21.182;2022-12-29T03:47:42;26.02;;;15.35;;
58731;SDS011;44508;44.626;21.182;2022-12-29T03:50:08;26.48;;;15.15;;
58731;SDS011;44508;44.626;21.182;2022-12-29T03:52:34;27.00;;;15.38;;
58731;SDS011;44508;44.626;21.182;2022-12-29T03:55:00;28.83;;;15.25;;
58731;SDS011;44508;44.626;21.182;2022-12-29T03:57:26;24.85;;;14.43;;
58731;SDS011;44508;44.626;21.182;2022-12-29T03:59:52;28.48;;;14.25;;
58731;SDS011;44508;44.626;21.182;2022-12-29T04:02:18;28.13;;;15.57;;
58731;SDS011;44508;44.626;21.182;2022-12-29T04:04:44;30.15;;;15.88;;
58731;SDS011;44508;44.626;21.182;2022-12-29T04:07:10;24.10;;;14.70;;
58731;SDS011;44508;44.626;21.182;2022-12-29T04:09:36;24.80;;;14.30;;
58731;SDS011;44508;44.626;21.182;2022-12-29T04:12:03;28.10;;;15.10;;
58731;SDS011;44508;44.626;21.182;2022-12-29T04:14:29;28.02;;;15.30;;
58731;SDS011;44508;44.626;21.182;2022-12-29T04:16:55;29.83;;;14.77;;
58731;SDS011;44508;44.626;21.182;2022-12-29T04:19:21;30.95;;;15.48;;
58731;SDS011;44508;44.626;21.182;2022-12-29T04:21:47;29.63;;;14.02;;
58731;SDS011;44508;44.626;21.182;2022-12-29T04:24:13;27.42;;;14.75;;
58731;SDS011;44508;44.626;21.182;2022-12-29T04:26:39;32.00;;;15.25;;
58731;SDS011;44508;44.626;21.182;2022-12-29T04:29:06;23.10;;;13.52;;
58731;SDS011;44508;44.626;21.182;2022-12-29T04:31:32;26.25;;;14.80;;
58731;SDS011;44508;44.626;21.182;2022-12-29T04:33:58;25.25;;;13.95;;
58731;SDS011;44508;44.626;21.182;2022-12-29T04:36:25;24.67;;;14.95;;
58731;SDS011;44508;44.626;21.182;2022-12-29T04:38:51;25.65;;;15.18;;
58731;SDS011;44508;44.626;21.182;2022-12-29T04:41:17;26.67;;;14.95;;
58731;SDS011;44508;44.626;21.182;2022-12-29T04:43:43;35.05;;;16.15;;
58731;SDS011;44508;44.626;21.182;2022-12-29T04:46:09;31.58;;;14.85;;
58731;SDS011;44508;44.626;21.182;2022-12-29T04:48:35;25.63;;;15.38;;
58731;SDS011;44508;44.626;21.182;2022-12-29T04:51:01;24.58;;;13.93;;
58731;SDS011;44508;44.626;21.182;2022-12-29T04:53:27;32.38;;;15.00;;
58731;SDS011;44508;44.626;21.182;2022-12-29T04:55:53;23.52;;;14.25;;
58731;SDS011;44508;44.626;21.182;2022-12-29T04:58:20;23.08;;;13.30;;
58731;SDS011;44508;44.626;21.182;2022-12-29T05:00:46;21.85;;;13.88;;
58731;SDS011;44508;44.626;21.182;2022-12-29T05:03:12;20.10;;;13.32;;
58731;SDS011;44508;44.626;21.182;2022-12-29T05:05:38;19.75;;;13.32;;
58731;SDS011;44508;44.626;21.182;2022-12-29T05:08:04;23.45;;;14.07;;
58731;SDS011;44508;44.626;21.182;2022-12-29T05:10:30;25.13;;;14.60;;
58731;SDS011;44508;44.626;21.182;2022-12-29T05:12:57;27.55;;;15.55;;
58731;SDS011;44508;44.626;21.182;2022-12-29T05:15:23;27.67;;;15.35;;
58731;SDS011;44508;44.626;21.182;2022-12-29T05:17:49;29.45;;;15.23;;
58731;SDS011;44508;44.626;21.182;2022-12-29T05:20:15;27.25;;;15.82;;
58731;SDS011;44508;44.626;21.182;2022-12-29T05:22:41;27.98;;;15.80;;
58731;SDS011;44508;44.626;21.182;2022-12-29T05:25:08;26.08;;;16.90;;
58731;SDS011;44508;44.626;21.182;2022-12-29T05:27:34;31.80;;;16.50;;
58731;SDS011;44508;44.626;21.182;2022-12-29T05:30:00;25.75;;;15.55;;
58731;SDS011;44508;44.626;21.182;2022-12-29T05:32:26;29.35;;;15.30;;
58731;SDS011;44508;44.626;21.182;2022-12-29T05:34:52;25.77;;;14.98;;
58731;SDS011;44508;44.626;21.182;2022-12-29T05:37:18;26.58;;;14.88;;
58731;SDS011;44508;44.626;21.182;2022-12-29T05:39:44;30.50;;;14.90;;
58731;SDS011;44508;44.626;21.182;2022-12-29T05:42:10;28.48;;;15.63;;
58731;SDS011;44508;44.626;21.182;2022-12-29T05:44:37;26.63;;;15.27;;
58731;SDS011;44508;44.626;21.182;2022-12-29T05:47:03;25.23;;;14.73;;
58731;SDS011;44508;44.626;21.182;2022-12-29T05:49:29;24.70;;;14.48;;
58731;SDS011;44508;44.626;21.182;2022-12-29T05:51:55;25.63;;;14.63;;
58731;SDS011;44508;44.626;21.182;2022-12-29T05:54:21;28.05;;;15.23;;
58731;SDS011;44508;44.626;21.182;2022-12-29T05:56:47;24.05;;;15.23;;
58731;SDS011;44508;44.626;21.182;2022-12-29T05:59:13;30.05;;;15.68;;
58731;SDS011;44508;44.626;21.182;2022-12-29T06:01:39;30.58;;;15.98;;
58731;SDS011;44508;44.626;21.182;2022-12-29T06:04:05;31.35;;;17.10;;
58731;SDS011;44508;44.626;21.182;2022-12-29T06:06:31;28.58;;;17.65;;
58731;SDS011;44508;44.626;21.182;2022-12-29T06:08:57;30.40;;;16.83;;
58731;SDS011;44508;44.626;21.182;2022-12-29T06:11:23;29.08;;;16.90;;
58731;SDS011;44508;44.626;21.182;2022-12-29T06:13:49;38.08;;;19.95;;
58731;SDS011;44508;44.626;21.182;2022-12-29T06:16:15;37.40;;;18.45;;
58731;SDS011;44508;44.626;21.182;2022-12-29T06:18:41;27.10;;;17.30;;
58731;SDS011;44508;44.626;21.182;2022-12-29T06:21:07;30.45;;;16.30;;
58731;SDS011;44508;44.626;21.182;2022-12-29T06:23:33;40.55;;;19.45;;
58731;SDS011;44508;44.626;21.182;2022-12-29T06:26:00;34.85;;;17.02;;
58731;SDS011;44508;44.626;21.182;2022-12-29T06:28:26;27.67;;;17.20;;
58731;SDS011;44508;44.626;21.182;2022-12-29T06:30:52;36.53;;;18.48;;
58731;SDS011;44508;44.626;21.182;2022-12-29T06:33:18;30.17;;;16.55;;
58731;SDS011;44508;44.626;21.182;2022-12-29T06:35:44;30.05;;;15.80;;
58731;SDS011;44508;44.626;21.182;2022-12-29T06:38:10;26.75;;;14.95;;
58731;SDS011;44508;44.626;21.182;2022-12-29T06:40:36;33.42;;;17.85;;
58731;SDS011;44508;44.626;21.182;2022-12-29T06:43:03;29.00;;;16.38;;
58731;SDS011;44508;44.626;21.182;2022-12-29T06:45:29;29.33;;;15.30;;
58731;SDS011;44508;44.626;21.182;2022-12-29T06:47:55;38.22;;;17.20;;
58731;SDS011;44508;44.626;21.182;2022-12-29T06:50:21;28.15;;;15.75;;
58731;SDS011;44508;44.626;21.182;2022-12-29T06:52:47;32.03;;;15.93;;
58731;SDS011;44508;44.626;21.182;2022-12-29T06:55:13;28.38;;;15.43;;
58731;SDS011;44508;44.626;21.182;2022-12-29T06:57:39;28.38;;;16.05;;
58731;SDS011;44508;44.626;21.182;2022-12-29T07:00:05;26.67;;;15.10;;
58731;SDS011;44508;44.626;21.182;2022-12-29T07:02:31;27.75;;;14.77;;
58731;SDS011;44508;44.626;21.182;2022-12-29T07:04:57;27.40;;;15.00;;
58731;SDS011;44508;44.626;21.182;2022-12-29T07:07:24;34.35;;;15.02;;
58731;SDS011;44508;44.626;21.182;2022-12-29T07:09:50;31.23;;;16.45;;
58731;SDS011;44508;44.626;21.182;2022-12-29T07:12:16;31.58;;;17.17;;
58731;SDS011;44508;44.626;21.182;2022-12-29T07:14:42;33.22;;;18.73;;
58731;SDS011;44508;44.626;21.182;2022-12-29T07:17:08;30.38;;;18.63;;
58731;SDS011;44508;44.626;21.182;2022-12-29T07:19:34;41.95;;;20.73;;
58731;SDS011;44508;44.626;21.182;2022-12-29T07:22:00;40.70;;;22.13;;
58731;SDS011;44508;44.626;21.182;2022-12-29T07:24:26;39.03;;;20.20;;
58731;SDS011;44508;44.626;21.182;2022-12-29T07:26:52;55.00;;;27.60;;
58731;SDS011;44508;44.626;21.182;2022-12-29T07:29:18;33.97;;;19.15;;
58731;SDS011;44508;44.626;21.182;2022-12-29T07:31:44;31.58;;;18.00;;
58731;SDS011;44508;44.626;21.182;2022-12-29T07:34:10;26.85;;;17.20;;
58731;SDS011;44508;44.626;21.182;2022-12-29T07:36:36;29.02;;;16.02;;
58731;SDS011;44508;44.626;21.182;2022-12-29T07:39:03;29.98;;;15.65;;
58731;SDS011;44508;44.626;21.182;2022-12-29T07:41:29;30.90;;;16.88;;
58731;SDS011;44508;44.626;21.182;2022-12-29T07:43:55;37.42;;;21.20;;
58731;SDS011;44508;44.626;21.182;2022-12-29T07:46:21;32.90;;;17.83;;
58731;SDS011;44508;44.626;21.182;2022-12-29T07:48:47;28.30;;;16.13;;
58731;SDS011;44508;44.626;21.182;2022-12-29T07:51:13;30.70;;;16.42;;
58731;SDS011;44508;44.626;21.182;2022-12-29T07:53:39;27.65;;;18.05;;
58731;SDS011;44508;44.626;21.182;2022-12-29T07:56:05;27.60;;;15.77;;
58731;SDS011;44508;44.626;21.182;2022-12-29T07:58:31;37.22;;;20.25;;
58731;SDS011;44508;44.626;21.182;2022-12-29T08:00:58;31.10;;;19.17;;
58731;SDS011;44508;44.626;21.182;2022-12-29T08:03:24;32.05;;;19.30;;
58731;SDS011;44508;44.626;21.182;2022-12-29T08:05:51;33.67;;;19.30;;
58731;SDS011;44508;44.626;21.182;2022-12-29T08:08:17;192.02;;;32.92;;
58731;SDS011;44508;44.626;21.182;2022-12-29T08:10:43;38.20;;;18.33;;
58731;SDS011;44508;44.626;21.182;2022-12-29T08:13:09;29.83;;;16.63;;
58731;SDS011;44508;44.626;21.182;2022-12-29T08:15:37;31.38;;;17.83;;
58731;SDS011;44508;44.626;21.182;2022-12-29T08:18:03;26.67;;;16.83;;
58731;SDS011;44508;44.626;21.182;2022-12-29T08:20:29;24.55;;;15.75;;
58731;SDS011;44508;44.626;21.182;2022-12-29T08:22:56;25.88;;;15.43;;
58731;SDS011;44508;44.626;21.182;2022-12-29T08:25:22;27.73;;;16.13;;
58731;SDS011;44508;44.626;21.182;2022-12-29T08:27:48;25.23;;;15.15;;
58731;SDS011;44508;44.626;21.182;2022-12-29T08:30:14;26.90;;;17.60;;
58731;SDS011;44508;44.626;21.182;2022-12-29T08:32:41;25.55;;;15.90;;
58731;SDS011;44508;44.626;21.182;2022-12-29T08:35:07;29.13;;;16.50;;
58731;SDS011;44508;44.626;21.182;2022-12-29T08:37:34;29.85;;;16.38;;
58731;SDS011;44508;44.626;21.182;2022-12-29T08:40:00;28.77;;;15.68;;
58731;SDS011;44508;44.626;21.182;2022-12-29T08:42:28;26.27;;;17.23;;
58731;SDS011;44508;44.626;21.182;2022-12-29T08:44:56;27.55;;;17.50;;
58731;SDS011;44508;44.626;21.182;2022-12-29T08:47:22;28.38;;;18.40;;
58731;SDS011;44508;44.626;21.182;2022-12-29T08:49:48;23.10;;;14.85;;
58731;SDS011;44508;44.626;21.182;2022-12-29T08:52:14;27.55;;;18.05;;
58731;SDS011;44508;44.626;21.182;2022-12-29T08:54:40;30.30;;;17.33;;
58731;SDS011;44508;44.626;21.182;2022-12-29T08:57:06;28.17;;;16.92;;
58731;SDS011;44508;44.626;21.182;2022-12-29T08:59:32;29.00;;;16.00;;
58731;SDS011;44508;44.626;21.182;2022-12-29T09:01:59;27.33;;;17.17;;
58731;SDS011;44508;44.626;21.182;2022-12-29T09:04:26;22.80;;;15.73;;
58731;SDS011;44508;44.626;21.182;2022-12-29T09:06:52;29.75;;;17.77;;
58731;SDS011;44508;44.626;21.182;2022-12-29T09:09:18;25.60;;;17.60;;
58731;SDS011;44508;44.626;21.182;2022-12-29T09:11:44;30.08;;;18.13;;
58731;SDS011;44508;44.626;21.182;2022-12-29T09:14:11;27.02;;;17.33;;
58731;SDS011;44508;44.626;21.182;2022-12-29T09:16:37;31.33;;;18.67;;
58731;SDS011;44508;44.626;21.182;2022-12-29T09:19:03;31.13;;;19.75;;
58731;SDS011;44508;44.626;21.182;2022-12-29T09:21:29;30.05;;;18.73;;
58731;SDS011;44508;44.626;21.182;2022-12-29T09:23:56;30.50;;;19.63;;
58731;SDS011;44508;44.626;21.182;2022-12-29T09:26:22;29.73;;;19.90;;
58731;SDS011;44508;44.626;21.182;2022-12-29T09:28:48;29.80;;;19.02;;
58731;SDS011;44508;44.626;21.182;2022-12-29T09:31:14;52.67;;;28.73;;
58731;SDS011;44508;44.626;21.182;2022-12-29T09:33:40;40.53;;;24.13;;
58731;SDS011;44508;44.626;21.182;2022-12-29T09:36:06;41.65;;;24.83;;
58731;SDS011;44508;44.626;21.182;2022-12-29T09:38:32;39.85;;;22.30;;
58731;SDS011;44508;44.626;21.182;2022-12-29T09:48:37;45.25;;;26.63;;
58731;SDS011;44508;44.626;21.182;2022-12-29T09:51:07;40.67;;;26.35;;
58731;SDS011;44508;44.626;21.182;2022-12-29T09:53:50;36.40;;;25.13;;
58731;SDS011;44508;44.626;21.182;2022-12-29T09:56:19;40.92;;;25.08;;
58731;SDS011;44508;44.626;21.182;2022-12-29T10:01:32;36.55;;;24.98;;
58731;SDS011;44508;44.626;21.182;2022-12-29T10:03:59;39.38;;;24.67;;
58731;SDS011;44508;44.626;21.182;2022-12-29T10:06:42;34.50;;;22.55;;
58731;SDS011;44508;44.626;21.182;2022-12-29T10:09:15;59.47;;;24.70;;
58731;SDS011;44508;44.626;21.182;2022-12-29T10:24:39;30.98;;;21.92;;
58731;SDS011;44508;44.626;21.182;2022-12-29T10:27:09;36.60;;;22.45;;
58731;SDS011;44508;44.626;21.182;2022-12-29T10:29:40;33.45;;;21.67;;
58731;SDS011;44508;44.626;21.182;2022-12-29T10:32:14;34.00;;;22.42;;
58731;SDS011;44508;44.626;21.182;2022-12-29T10:34:45;27.48;;;19.70;;
58731;SDS011;44508;44.626;21.182;2022-12-29T10:37:27;32.03;;;20.90;;
58731;SDS011;44508;44.626;21.182;2022-12-29T10:39:55;30.10;;;20.45;;
58731;SDS011;44508;44.626;21.182;2022-12-29T10:42:29;29.75;;;20.35;;
58731;SDS011;44508;44.626;21.182;2022-12-29T10:44:59;32.63;;;20.30;;
58731;SDS011;44508;44.626;21.182;2022-12-29T10:47:27;28.33;;;18.63;;
58731;SDS011;44508;44.626;21.182;2022-12-29T10:49:54;29.92;;;20.92;;
58731;SDS011;44508;44.626;21.182;2022-12-29T10:52:21;29.33;;;20.13;;
58731;SDS011;44508;44.626;21.182;2022-12-29T10:55:02;33.80;;;20.40;;
58731;SDS011;44508;44.626;21.182;2022-12-29T10:57:36;31.58;;;17.80;;
58731;SDS011;44508;44.626;21.182;2022-12-29T11:07:23;35.13;;;20.73;;
58731;SDS011;44508;44.626;21.182;2022-12-29T11:09:51;31.00;;;19.58;;
58731;SDS011;44508;44.626;21.182;2022-12-29T11:12:18;35.40;;;20.08;;
58731;SDS011;44508;44.626;21.182;2022-12-29T11:14:44;29.20;;;18.70;;
58731;SDS011;44508;44.626;21.182;2022-12-29T11:17:14;36.00;;;20.83;;
58731;SDS011;44508;44.626;21.182;2022-12-29T11:19:40;28.65;;;18.10;;
58731;SDS011;44508;44.626;21.182;2022-12-29T11:22:14;23.48;;;16.92;;
58731;SDS011;44508;44.626;21.182;2022-12-29T11:24:46;27.70;;;18.13;;
58731;SDS011;44508;44.626;21.182;2022-12-29T11:29:42;36.72;;;20.13;;
58731;SDS011;44508;44.626;21.182;2022-12-29T11:34:37;30.08;;;20.02;;
58731;SDS011;44508;44.626;21.182;2022-12-29T11:37:14;38.60;;;21.50;;
58731;SDS011;44508;44.626;21.182;2022-12-29T11:40:01;31.38;;;20.20;;
58731;SDS011;44508;44.626;21.182;2022-12-29T11:42:35;24.70;;;17.63;;
58731;SDS011;44508;44.626;21.182;2022-12-29T11:45:18;33.05;;;18.75;;
58731;SDS011;44508;44.626;21.182;2022-12-29T11:47:49;28.88;;;18.67;;
58731;SDS011;44508;44.626;21.182;2022-12-29T11:50:26;27.98;;;16.92;;
58731;SDS011;44508;44.626;21.182;2022-12-29T11:53:05;25.85;;;18.38;;
58731;SDS011;44508;44.626;21.182;2022-12-29T11:55:31;27.30;;;18.10;;
58731;SDS011;44508;44.626;21.182;2022-12-29T11:57:59;24.35;;;18.20;;
58731;SDS011;44508;44.626;21.182;2022-12-29T12:00:27;27.23;;;17.20;;
58731;SDS011;44508;44.626;21.182;2022-12-29T12:02:56;32.13;;;18.92;;
58731;SDS011;44508;44.626;21.182;2022-12-29T12:08:09;27.40;;;17.33;;
58731;SDS011;44508;44.626;21.182;2022-12-29T12:15:40;29.08;;;19.27;;
58731;SDS011;44508;44.626;21.182;2022-12-29T12:18:12;32.63;;;20.10;;
58731;SDS011;44508;44.626;21.182;2022-12-29T12:20:51;25.55;;;18.27;;
58731;SDS011;44508;44.626;21.182;2022-12-29T12:23:36;31.25;;;20.33;;
58731;SDS011;44508;44.626;21.182;2022-12-29T12:26:18;31.25;;;20.15;;
58731;SDS011;44508;44.626;21.182;2022-12-29T12:28:56;26.02;;;19.67;;
58731;SDS011;44508;44.626;21.182;2022-12-29T12:33:50;28.80;;;18.13;;
58731;SDS011;44508;44.626;21.182;2022-12-29T12:43:51;29.92;;;21.17;;
58731;SDS011;44508;44.626;21.182;2022-12-29T12:51:45;26.48;;;18.20;;
58731;SDS011;44508;44.626;21.182;2022-12-29T13:07:32;25.52;;;17.98;;
58731;SDS011;44508;44.626;21.182;2022-12-29T13:17:43;37.35;;;19.92;;
58731;SDS011;44508;44.626;21.182;2022-12-29T13:23:05;30.65;;;18.13;;
58731;SDS011;44508;44.626;21.182;2022-12-29T13:25:36;31.02;;;19.27;;
58731;SDS011;44508;44.626;21.182;2022-12-29T13:28:06;31.58;;;18.35;;
58731;SDS011;44508;44.626;21.182;2022-12-29T13:30:43;33.63;;;18.42;;
58731;SDS011;44508;44.626;21.182;2022-12-29T13:41:06;31.20;;;19.20;;
58731;SDS011;44508;44.626;21.182;2022-12-29T13:43:34;33.40;;;18.25;;
58731;SDS011;44508;44.626;21.182;2022-12-29T13:46:05;27.80;;;18.58;;
58731;SDS011;44508;44.626;21.182;2022-12-29T13:48:37;32.28;;;18.20;;
58731;SDS011;44508;44.626;21.182;2022-12-29T13:51:05;30.77;;;18.67;;
58731;SDS011;44508;44.626;21.182;2022-12-29T13:56:14;31.55;;;19.67;;
58731;SDS011;44508;44.626;21.182;2022-12-29T14:03:50;29.05;;;19.20;;
58731;SDS011;44508;44.626;21.182;2022-12-29T14:08:47;37.95;;;24.10;;
58731;SDS011;44508;44.626;21.182;2022-12-29T14:11:14;34.30;;;21.60;;
58731;SDS011;44508;44.626;21.182;2022-12-29T14:13:42;37.83;;;20.92;;
58731;SDS011;44508;44.626;21.182;2022-12-29T14:16:11;35.78;;;20.55;;
58731;SDS011;44508;44.626;21.182;2022-12-29T14:18:48;30.88;;;18.85;;
58731;SDS011;44508;44.626;21.182;2022-12-29T14:23:41;24.08;;;15.63;;
58731;SDS011;44508;44.626;21.182;2022-12-29T14:29:15;30.23;;;19.67;;
58731;SDS011;44508;44.626;21.182;2022-12-29T14:31:41;33.60;;;22.75;;
58731;SDS011;44508;44.626;21.182;2022-12-29T14:36:35;43.03;;;26.63;;
58731;SDS011;44508;44.626;21.182;2022-12-29T14:39:02;47.58;;;29.27;;
58731;SDS011;44508;44.626;21.182;2022-12-29T14:41:30;44.97;;;28.27;;
58731;SDS011;44508;44.626;21.182;2022-12-29T14:44:19;50.97;;;29.90;;
58731;SDS011;44508;44.626;21.182;2022-12-29T14:46:45;77.28;;;39.97;;
58731;SDS011;44508;44.626;21.182;2022-12-29T14:49:16;104.22;;;50.50;;
58731;SDS011;44508;44.626;21.182;2022-12-29T14:51:43;223.52;;;100.38;;
58731;SDS011;44508;44.626;21.182;2022-12-29T14:56:56;104.43;;;58.30;;
58731;SDS011;44508;44.626;21.182;2022-12-29T14:59:23;68.32;;;42.40;;
58731;SDS011;44508;44.626;21.182;2022-12-29T15:01:52;72.95;;;39.75;;
58731;SDS011;44508;44.626;21.182;2022-12-29T15:04:25;53.95;;;33.33;;
58731;SDS011;44508;44.626;21.182;2022-12-29T15:06:51;63.42;;;38.35;;
58731;SDS011;44508;44.626;21.182;2022-12-29T15:09:22;66.72;;;41.40;;
58731;SDS011;44508;44.626;21.182;2022-12-29T15:12:06;56.78;;;34.20;;
58731;SDS011;44508;44.626;21.182;2022-12-29T15:14:39;51.50;;;32.35;;
58731;SDS011;44508;44.626;21.182;2022-12-29T15:19:39;38.67;;;21.15;;
58731;SDS011;44508;44.626;21.182;2022-12-29T15:22:05;33.95;;;21.63;;
58731;SDS011;44508;44.626;21.182;2022-12-29T15:24:32;38.97;;;22.65;;
58731;SDS011;44508;44.626;21.182;2022-12-29T15:26:58;44.25;;;24.08;;
58731;SDS011;44508;44.626;21.182;2022-12-29T15:32:10;41.22;;;22.90;;
58731;SDS011;44508;44.626;21.182;2022-12-29T15:34:37;36.80;;;22.00;;
58731;SDS011;44508;44.626;21.182;2022-12-29T15:37:07;42.83;;;21.52;;
58731;SDS011;44508;44.626;21.182;2022-12-29T15:39:33;37.00;;;22.23;;
58731;SDS011;44508;44.626;21.182;2022-12-29T15:42:02;36.00;;;22.73;;
58731;SDS011;44508;44.626;21.182;2022-12-29T15:44:32;36.92;;;21.88;;
58731;SDS011;44508;44.626;21.182;2022-12-29T15:47:11;35.92;;;22.25;;
58731;SDS011;44508;44.626;21.182;2022-12-29T15:49:39;32.83;;;20.92;;
58731;SDS011;44508;44.626;21.182;2022-12-29T15:52:07;31.60;;;18.60;;
58731;SDS011;44508;44.626;21.182;2022-12-29T15:54:34;27.25;;;16.98;;
58731;SDS011;44508;44.626;21.182;2022-12-29T15:57:00;28.67;;;18.05;;
58731;SDS011;44508;44.626;21.182;2022-12-29T15:59:28;32.67;;;19.73;;
58731;SDS011;44508;44.626;21.182;2022-12-29T16:01:55;33.45;;;21.92;;
58731;SDS011;44508;44.626;21.182;2022-12-29T16:04:21;28.50;;;20.33;;
58731;SDS011;44508;44.626;21.182;2022-12-29T16:09:43;38.80;;;22.40;;
58731;SDS011;44508;44.626;21.182;2022-12-29T16:12:19;33.22;;;22.58;;
58731;SDS011;44508;44.626;21.182;2022-12-29T16:17:22;42.30;;;25.90;;
58731;SDS011;44508;44.626;21.182;2022-12-29T16:19:55;45.53;;;27.50;;
58731;SDS011;44508;44.626;21.182;2022-12-29T16:22:29;46.42;;;29.67;;
58731;SDS011;44508;44.626;21.182;2022-12-29T16:25:00;49.80;;;30.45;;
58731;SDS011;44508;44.626;21.182;2022-12-29T16:27:37;51.33;;;31.65;;
58731;SDS011;44508;44.626;21.182;2022-12-29T16:30:16;58.70;;;34.45;;
58731;SDS011;44508;44.626;21.182;2022-12-29T16:32:46;51.92;;;31.58;;
58731;SDS011;44508;44.626;21.182;2022-12-29T16:35:17;53.42;;;28.98;;
58731;SDS011;44508;44.626;21.182;2022-12-29T16:37:44;52.00;;;27.40;;
58731;SDS011;44508;44.626;21.182;2022-12-29T16:50:19;45.85;;;27.77;;
58731;SDS011;44508;44.626;21.182;2022-12-29T16:52:50;184.18;;;34.15;;
58731;SDS011;44508;44.626;21.182;2022-12-29T16:55:16;100.63;;;31.17;;
58731;SDS011;44508;44.626;21.182;2022-12-29T16:57:43;45.90;;;28.15;;
58731;SDS011;44508;44.626;21.182;2022-12-29T17:00:17;57.05;;;30.58;;
58731;SDS011;44508;44.626;21.182;2022-12-29T17:02:44;48.55;;;30.30;;
58731;SDS011;44508;44.626;21.182;2022-12-29T17:05:15;51.05;;;31.20;;
58731;SDS011;44508;44.626;21.182;2022-12-29T17:07:41;86.45;;;40.65;;